Time;durP1;ratioP1;P1;durP2;ratioP2;P2;SDS_P1;SDS_P2;PMS_P1;PMS_P2;Temp;Humidity;BMP_temperature;BMP_pressure;BME280_temperature;BME280_humidity;BME280_pressure;Samples;Min_cycle;Max_cycle;Signal;HPM_P1;HPM_P2
2023/01/23 00:00:07;;;;;;;25.13;15.23;;;2.30;99.90;;;;;;5105714;28;20404;-68
2023/01/23 00:02:32;;;;;;;;;;;2.40;99.90;;;;;;5096629;28;20044;-68
2023/01/23 00:04:58;;;;;;;26.98;16.40;;;2.40;99.90;;;;;;5107685;28;19924;-68
2023/01/23 00:07:24;;;;;;;28.38;17.30;;;2.40;99.90;;;;;;5099306;28;20040;-69
2023/01/23 00:09:50;;;;;;;5.85;4.47;;;2.40;99.90;;;;;;5098024;28;20050;-68
2023/01/23 00:12:15;;;;;;;30.33;16.40;;;2.40;99.90;;;;;;5090616;28;20409;-68
2023/01/23 00:14:41;;;;;;;31.70;18.02;;;2.40;99.90;;;;;;5094611;28;20424;-68
2023/01/23 00:17:07;;;;;;;24.60;17.20;;;2.40;99.90;;;;;;5102087;28;20048;-68
2023/01/23 00:19:32;;;;;;;31.95;19.08;;;2.40;99.90;;;;;;5098692;28;20504;-68
2023/01/23 00:21:59;;;;;;;23.58;17.67;;;2.50;99.90;;;;;;5092216;28;20137;-68
2023/01/23 00:24:26;;;;;;;35.72;18.00;;;2.40;99.90;;;;;;5094070;28;20051;-69
2023/01/23 00:26:51;;;;;;;34.40;18.10;;;2.50;99.90;;;;;;5092749;28;20056;-68
2023/01/23 00:29:17;;;;;;;33.00;18.52;;;2.50;99.90;;;;;;5092833;28;20052;-68
2023/01/23 00:31:43;;;;;;;28.38;19.45;;;2.50;99.90;;;;;;5098162;28;20109;-68
2023/01/23 00:34:12;;;;;;;30.98;18.20;;;2.50;99.90;;;;;;5107498;28;20052;-68
2023/01/23 00:36:40;;;;;;;32.20;20.67;;;2.50;99.90;;;;;;5095286;28;20051;-68
2023/01/23 00:39:13;;;;;;;35.80;19.20;;;2.50;99.90;;;;;;5100548;28;20048;-68
2023/01/23 00:41:43;;;;;;;32.90;20.60;;;2.50;99.90;;;;;;5100859;28;20048;-68
2023/01/23 00:44:08;;;;;;;34.83;21.08;;;2.50;99.90;;;;;;5092061;28;20048;-68
2023/01/23 00:46:34;;;;;;;31.88;20.95;;;2.50;99.90;;;;;;5094138;28;20048;-68
2023/01/23 00:49:00;;;;;;;28.98;19.52;;;2.40;99.90;;;;;;5105573;28;20046;-68
2023/01/23 00:51:26;;;;;;;29.77;19.42;;;2.50;99.90;;;;;;5097560;28;20508;-68
2023/01/23 00:53:51;;;;;;;33.10;21.00;;;2.50;99.90;;;;;;5098592;28;20048;-68
2023/01/23 00:56:17;;;;;;;33.13;19.80;;;2.40;99.90;;;;;;5109138;28;20043;-68
2023/01/23 00:58:43;;;;;;;35.10;19.60;;;2.50;99.90;;;;;;5098569;28;20051;-68
2023/01/23 01:01:10;;;;;;;34.55;19.88;;;2.40;99.90;;;;;;5107874;28;20136;-68
2023/01/23 01:03:35;;;;;;;39.72;20.50;;;2.50;99.90;;;;;;5102294;28;20067;-68
2023/01/23 01:06:02;;;;;;;61.95;21.35;;;2.50;99.90;;;;;;5098665;28;20071;-68
2023/01/23 01:08:28;;;;;;;36.30;21.70;;;2.40;99.90;;;;;;5106748;28;20040;-68
2023/01/23 01:10:54;;;;;;;34.80;20.75;;;2.40;99.90;;;;;;5099135;28;20040;-68
2023/01/23 01:13:20;;;;;;;36.00;21.13;;;2.50;99.90;;;;;;5099410;28;20401;-68
2023/01/23 01:15:55;;;;;;;36.15;19.80;;;2.40;99.90;;;;;;5098220;28;20040;-68
2023/01/23 01:18:22;;;;;;;31.45;19.00;;;2.50;99.90;;;;;;5097897;28;20058;-68
2023/01/23 01:20:48;;;;;;;33.70;21.83;;;2.40;99.90;;;;;;5091109;28;20074;-68
2023/01/23 01:23:14;;;;;;;36.40;18.25;;;2.40;99.90;;;;;;5103399;28;20100;-68
2023/01/23 01:25:40;;;;;;;37.80;20.13;;;2.40;99.90;;;;;;5103688;27;20787;-68
2023/01/23 01:28:06;;;;;;;33.92;20.90;;;2.40;99.90;;;;;;5098030;28;20185;-68
2023/01/23 01:30:32;;;;;;;31.25;19.48;;;2.40;99.90;;;;;;5095331;28;20051;-68
2023/01/23 01:32:58;;;;;;;30.23;19.17;;;2.40;99.90;;;;;;5101364;28;20039;-68
2023/01/23 01:35:24;;;;;;;29.02;19.73;;;2.40;99.90;;;;;;5095433;28;20052;-68
2023/01/23 01:37:50;;;;;;;33.13;19.52;;;2.40;99.90;;;;;;5102220;28;20145;-68
2023/01/23 01:40:19;;;;;;;28.95;18.75;;;2.40;99.90;;;;;;5095189;28;20398;-68
2023/01/23 01:42:50;;;;;;;26.10;17.95;;;2.40;99.90;;;;;;5104880;28;20032;-68
2023/01/23 01:45:53;;;;;;;33.03;19.02;;;2.40;99.90;;;;;;5072745;28;20047;-68
2023/01/23 01:48:22;;;;;;;34.47;20.77;;;2.40;99.90;;;;;;5098815;28;20047;-68
2023/01/23 01:50:48;;;;;;;33.70;19.27;;;2.40;99.90;;;;;;5094175;28;20052;-68
2023/01/23 01:53:13;;;;;;;10.02;5.68;;;2.40;99.90;;;;;;5103841;28;20046;-69
2023/01/23 01:55:39;;;;;;;29.60;18.63;;;2.40;99.90;;;;;;5103998;28;20103;-68
2023/01/23 01:58:06;;;;;;;36.25;19.50;;;2.40;99.90;;;;;;5105179;28;20118;-68
2023/01/23 02:00:31;;;;;;;31.58;20.13;;;2.40;99.90;;;;;;5092666;28;20109;-68
2023/01/23 02:02:59;;;;;;;37.97;19.33;;;2.40;99.90;;;;;;5108975;28;20043;-68
2023/01/23 02:05:33;;;;;;;34.58;20.58;;;2.40;99.90;;;;;;5090294;28;20072;-69
2023/01/23 02:08:15;;;;;;;30.48;17.83;;;2.40;99.90;;;;;;5100199;28;20492;-68
2023/01/23 02:10:42;;;;;;;36.00;20.08;;;2.40;99.90;;;;;;5107385;28;20414;-68
2023/01/23 02:13:20;;;;;;;33.10;17.40;;;2.40;99.90;;;;;;5099138;28;20038;-68
2023/01/23 02:15:46;;;;;;;31.55;17.77;;;2.40;99.90;;;;;;5098105;28;20043;-68
2023/01/23 02:18:12;;;;;;;26.05;17.95;;;2.40;99.90;;;;;;5107355;28;20181;-68
2023/01/23 02:20:38;;;;;;;25.05;18.08;;;2.40;99.90;;;;;;5089533;28;20569;-68
2023/01/23 02:23:31;;;;;;;32.72;20.38;;;2.40;99.90;;;;;;5094955;28;20078;-68
2023/01/23 02:26:08;;;;;;;25.33;17.95;;;2.40;99.90;;;;;;5090867;28;20518;-68
2023/01/23 02:28:48;;;;;;;30.23;18.10;;;2.40;99.90;;;;;;5104259;28;20048;-68
2023/01/23 02:31:14;;;;;;;34.08;19.73;;;2.40;99.90;;;;;;5099235;28;20039;-68
2023/01/23 02:33:44;;;;;;;28.27;18.17;;;2.40;99.90;;;;;;5096276;28;20067;-68
2023/01/23 02:36:10;;;;;;;31.15;18.75;;;2.40;99.90;;;;;;5093051;28;20071;-68
2023/01/23 02:38:47;;;;;;;32.38;18.15;;;2.40;99.90;;;;;;5094891;28;20114;-68
2023/01/23 02:41:14;;;;;;;39.67;20.55;;;2.40;99.90;;;;;;5105790;28;20754;-68
2023/01/23 02:43:41;;;;;;;32.63;18.38;;;2.40;99.90;;;;;;5109904;28;20036;-68
2023/01/23 02:46:09;;;;;;;22.77;17.23;;;2.40;99.90;;;;;;5101578;28;20044;-68
2023/01/23 02:48:36;;;;;;;27.00;17.38;;;2.40;99.90;;;;;;5108249;28;20098;-68
2023/01/23 02:51:02;;;;;;;26.10;17.20;;;2.40;99.90;;;;;;5099163;28;20114;-68
2023/01/23 02:53:29;;;;;;;31.35;18.85;;;2.40;99.90;;;;;;5095884;28;20147;-68
2023/01/23 02:55:55;;;;;;;30.67;18.63;;;2.40;99.90;;;;;;5100471;28;20071;-68
2023/01/23 03:01:06;;;;;;;30.67;17.70;;;2.40;99.90;;;;;;5091945;28;20051;-68
2023/01/23 03:03:31;;;;;;;30.67;19.33;;;2.40;99.90;;;;;;5092416;28;20568;-68
2023/01/23 03:05:58;;;;;;;30.25;18.25;;;2.40;99.90;;;;;;5108774;28;20085;-68
2023/01/23 03:08:32;;;;;;;40.72;17.50;;;2.40;99.90;;;;;;5092267;28;20089;-68
2023/01/23 03:10:58;;;;;;;25.83;17.38;;;2.40;99.90;;;;;;5091625;28;20048;-68
2023/01/23 03:13:24;;;;;;;28.33;16.77;;;2.50;99.90;;;;;;5096564;28;20040;-68
2023/01/23 03:15:51;;;;;;;30.23;18.05;;;2.50;99.90;;;;;;5094838;28;20503;-68
2023/01/23 03:18:17;;;;;;;28.97;19.73;;;2.40;99.90;;;;;;5107633;28;20039;-69
2023/01/23 03:20:43;;;;;;;26.50;17.42;;;2.40;99.90;;;;;;5107987;28;20450;-68
2023/01/23 03:23:09;;;;;;;25.05;18.17;;;2.40;99.90;;;;;;5109148;28;20105;-68
2023/01/23 03:25:35;;;;;;;28.98;17.83;;;2.50;99.90;;;;;;5097438;28;20099;-68
2023/01/23 03:28:00;;;;;;;27.30;18.65;;;2.50;99.90;;;;;;5106868;28;20062;-68
2023/01/23 03:30:26;;;;;;;35.63;19.27;;;2.50;99.90;;;;;;5101741;28;20666;-68
2023/01/23 03:32:52;;;;;;;30.17;18.13;;;2.50;99.90;;;;;;5108282;28;20502;-68
2023/01/23 03:35:19;;;;;;;25.88;17.88;;;2.50;99.90;;;;;;5096193;28;20473;-68
2023/01/23 03:37:46;;;;;;;30.23;17.77;;;2.50;99.90;;;;;;5109099;28;20035;-68
2023/01/23 03:43:09;;;;;;;29.60;18.75;;;2.50;99.90;;;;;;5104340;28;20135;-68
2023/01/23 03:45:35;;;;;;;25.30;17.48;;;2.50;99.90;;;;;;5107906;28;20046;-68
2023/01/23 03:48:00;;;;;;;32.35;20.17;;;2.50;99.90;;;;;;5107687;28;20035;-68
2023/01/23 03:50:26;;;;;;;27.00;18.15;;;2.50;99.90;;;;;;5106512;28;20413;-69
2023/01/23 03:52:52;;;;;;;28.17;18.48;;;2.40;99.90;;;;;;5102937;28;20397;-68
2023/01/23 03:55:17;;;;;;;25.67;19.15;;;2.50;99.90;;;;;;5101505;28;20524;-68
2023/01/23 03:57:43;;;;;;;26.60;18.50;;;2.50;99.90;;;;;;5102062;28;20511;-68
2023/01/23 04:00:09;;;;;;;27.92;18.83;;;2.40;99.90;;;;;;5088669;28;20051;-68
2023/01/23 04:02:35;;;;;;;35.40;20.92;;;2.40;99.90;;;;;;5093187;28;20039;-68
2023/01/23 04:05:00;;;;;;;30.52;19.25;;;2.40;99.90;;;;;;5093400;28;20032;-68
2023/01/23 04:07:26;;;;;;;25.95;17.52;;;2.40;99.90;;;;;;5089442;28;20451;-68
2023/01/23 04:09:52;;;;;;;29.85;19.85;;;2.40;99.90;;;;;;5089332;28;20040;-68
2023/01/23 04:12:17;;;;;;;32.40;20.17;;;2.40;99.90;;;;;;5095722;28;20043;-68
2023/01/23 04:14:43;;;;;;;27.73;18.23;;;2.40;99.90;;;;;;5090284;28;20126;-68
2023/01/23 04:17:10;;;;;;;33.83;20.83;;;2.40;99.90;;;;;;5088120;28;20040;-68
2023/01/23 04:19:36;;;;;;;29.48;19.20;;;2.40;99.90;;;;;;5093387;28;20052;-68
2023/01/23 04:22:01;;;;;;;38.15;20.58;;;2.40;99.90;;;;;;5104038;28;20498;-69
2023/01/23 04:24:27;;;;;;;33.75;18.98;;;2.40;99.90;;;;;;5097866;28;20043;-68
2023/01/23 04:26:53;;;;;;;13.07;5.03;;;2.40;99.90;;;;;;5101951;28;20424;-68
2023/01/23 04:29:19;;;;;;;29.88;20.92;;;2.40;99.90;;;;;;5104189;28;20085;-68
2023/01/23 04:31:44;;;;;;;33.50;19.95;;;2.40;99.90;;;;;;5105607;28;20106;-68
2023/01/23 04:34:10;;;;;;;24.35;18.55;;;2.40;99.90;;;;;;5099506;28;20626;-69
2023/01/23 04:36:36;;;;;;;28.27;18.83;;;2.40;99.90;;;;;;5106395;28;20044;-68
2023/01/23 04:39:03;;;;;;;32.10;20.75;;;2.40;99.90;;;;;;5089189;28;20064;-71
2023/01/23 04:41:30;;;;;;;32.67;19.63;;;2.40;99.90;;;;;;5107608;28;20043;-68
2023/01/23 04:44:18;;;;;;;31.05;19.83;;;2.40;99.90;;;;;;5096438;28;20165;-68
2023/01/23 04:46:42;;;;;;;29.23;18.00;;;2.40;99.90;;;;;;5093081;28;20056;-68
2023/01/23 04:49:08;;;;;;;31.08;19.73;;;2.40;99.90;;;;;;5086952;28;20056;-69
2023/01/23 04:51:33;;;;;;;30.65;20.05;;;2.40;99.90;;;;;;5099214;28;20039;-68
2023/01/23 04:53:59;;;;;;;33.17;19.55;;;2.40;99.90;;;;;;5098911;28;20115;-68
2023/01/23 04:56:24;;;;;;;32.28;19.67;;;2.40;99.90;;;;;;5090864;28;20040;-68
2023/01/23 04:58:52;;;;;;;32.67;19.38;;;2.40;99.90;;;;;;5090453;28;20488;-68
2023/01/23 05:01:21;;;;;;;29.88;18.90;;;2.40;99.90;;;;;;5095335;28;20652;-68
2023/01/23 05:03:49;;;;;;;30.00;18.05;;;2.40;99.90;;;;;;5107260;28;20520;-68
2023/01/23 05:06:14;;;;;;;29.83;18.60;;;2.40;99.90;;;;;;5098925;28;20039;-68
2023/01/23 05:08:40;;;;;;;39.40;19.83;;;2.40;99.90;;;;;;5098790;28;20032;-68
2023/01/23 05:11:06;;;;;;;25.52;17.73;;;2.40;99.90;;;;;;5099058;28;20047;-68
2023/01/23 05:13:31;;;;;;;34.95;19.05;;;2.40;99.90;;;;;;5087322;28;20032;-68
2023/01/23 05:15:58;;;;;;;35.15;20.52;;;2.40;99.90;;;;;;5088065;28;20044;-68
2023/01/23 05:18:24;;;;;;;28.80;19.50;;;2.40;99.90;;;;;;5090006;28;20451;-68
2023/01/23 05:20:49;;;;;;;30.30;19.90;;;2.40;99.90;;;;;;5092032;28;20047;-68
2023/01/23 05:23:15;;;;;;;28.38;17.13;;;2.40;99.90;;;;;;5101089;28;20048;-68
2023/01/23 05:25:41;;;;;;;26.10;18.25;;;2.40;99.90;;;;;;5095933;28;20124;-68
2023/01/23 05:28:06;;;;;;;29.80;17.88;;;2.40;99.90;;;;;;5092016;28;20516;-68
2023/01/23 05:30:32;;;;;;;27.42;17.92;;;2.40;99.90;;;;;;5099848;28;20028;-68
2023/01/23 05:32:59;;;;;;;30.08;18.70;;;2.40;99.90;;;;;;5092863;28;20068;-68
2023/01/23 05:35:24;;;;;;;31.45;19.25;;;2.40;99.90;;;;;;5090071;28;20708;-69
2023/01/23 05:37:51;;;;;;;29.40;19.65;;;2.40;99.90;;;;;;5095846;28;20048;-69
2023/01/23 05:40:18;;;;;;;31.60;19.25;;;2.40;99.90;;;;;;5097237;28;20054;-70
2023/01/23 05:42:44;;;;;;;27.02;18.75;;;2.40;99.90;;;;;;5098674;28;20048;-70
2023/01/23 05:45:10;;;;;;;35.75;18.95;;;2.40;99.90;;;;;;5091316;28;20040;-70
2023/01/23 05:47:36;;;;;;;27.15;17.67;;;2.40;99.90;;;;;;5090353;28;20032;-70
2023/01/23 05:50:05;;;;;;;16.60;8.38;;;2.40;99.90;;;;;;5090664;28;20055;-70
2023/01/23 05:52:30;;;;;;;11.13;6.13;;;2.30;99.90;;;;;;5105389;28;20047;-69
2023/01/23 05:54:56;;;;;;;27.63;18.02;;;2.30;99.90;;;;;;5103194;28;20032;-69
2023/01/23 05:57:22;;;;;;;11.00;6.93;;;2.30;99.90;;;;;;5099663;28;20046;-70
2023/01/23 05:59:48;;;;;;;35.05;18.90;;;2.30;99.90;;;;;;5105753;28;20044;-70
2023/01/23 06:02:14;;;;;;;34.17;19.95;;;2.30;99.90;;;;;;5096398;28;20047;-69
2023/01/23 06:04:39;;;;;;;28.33;18.98;;;2.30;99.90;;;;;;5098386;28;20044;-69
2023/01/23 06:07:11;;;;;;;37.38;19.80;;;2.30;99.90;;;;;;5099885;28;20039;-69
2023/01/23 06:09:37;;;;;;;29.98;19.75;;;2.30;99.90;;;;;;5099932;28;20564;-70
2023/01/23 06:12:03;;;;;;;34.22;19.88;;;2.30;99.90;;;;;;5090072;28;20043;-69
2023/01/23 06:14:28;;;;;;;26.80;18.27;;;2.30;99.90;;;;;;5096904;28;20054;-69
2023/01/23 06:16:54;;;;;;;28.63;19.17;;;2.30;99.90;;;;;;5102483;28;20048;-69
2023/01/23 06:19:20;;;;;;;28.58;20.02;;;2.30;99.90;;;;;;5092040;28;20520;-69
2023/01/23 06:21:45;;;;;;;29.17;19.55;;;2.30;99.90;;;;;;5100252;28;20044;-69
2023/01/23 06:24:11;;;;;;;35.40;20.15;;;2.30;99.90;;;;;;5094253;28;20036;-69
2023/01/23 06:26:37;;;;;;;33.50;21.73;;;2.30;99.90;;;;;;5118900;27;20706;-69
2023/01/23 06:29:03;;;;;;;31.85;20.23;;;2.30;99.90;;;;;;5104989;28;20058;-70
2023/01/23 06:31:31;;;;;;;36.00;20.48;;;2.30;99.90;;;;;;5101276;28;20407;-69
2023/01/23 06:33:57;;;;;;;31.52;19.98;;;2.30;99.90;;;;;;5097683;28;20052;-69
2023/01/23 06:36:23;;;;;;;31.58;19.80;;;2.30;99.90;;;;;;5097790;28;20059;-69
2023/01/23 06:38:49;;;;;;;29.42;19.60;;;2.30;99.90;;;;;;5103611;28;22147;-69
2023/01/23 06:41:15;;;;;;;31.40;20.38;;;2.30;99.90;;;;;;5094751;28;20075;-69
2023/01/23 06:43:41;;;;;;;33.42;20.50;;;2.30;99.90;;;;;;5098775;28;20035;-69
2023/01/23 06:46:08;;;;;;;28.42;18.75;;;2.30;99.90;;;;;;5099785;28;20668;-69
2023/01/23 06:48:35;;;;;;;29.55;19.45;;;2.30;99.90;;;;;;5096356;28;20564;-69
2023/01/23 06:51:03;;;;;;;31.70;19.13;;;2.30;99.90;;;;;;5104810;28;20075;-69
2023/01/23 06:53:29;;;;;;;31.67;20.00;;;2.30;99.90;;;;;;5088262;28;20189;-69
2023/01/23 06:56:07;;;;;;;27.90;18.42;;;2.30;99.90;;;;;;5102870;28;20778;-69
2023/01/23 06:58:33;;;;;;;27.20;19.35;;;2.30;99.90;;;;;;5092129;28;20040;-69
2023/01/23 07:01:07;;;;;;;30.35;20.25;;;2.30;99.90;;;;;;5106801;28;20036;-69
2023/01/23 07:03:33;;;;;;;27.50;17.20;;;2.30;99.90;;;;;;5097557;28;20580;-69
2023/01/23 07:06:05;;;;;;;30.85;18.58;;;2.30;99.90;;;;;;5107514;28;20051;-68
2023/01/23 07:08:35;;;;;;;26.40;18.58;;;2.30;99.90;;;;;;5097585;28;20100;-69
2023/01/23 07:11:02;;;;;;;26.50;18.02;;;2.30;99.90;;;;;;5089697;28;20044;-69
2023/01/23 07:13:28;;;;;;;30.92;18.90;;;2.30;99.90;;;;;;5099444;28;20040;-68
2023/01/23 07:15:54;;;;;;;26.77;17.23;;;2.30;99.90;;;;;;5100702;28;20480;-69
2023/01/23 07:18:19;;;;;;;23.40;18.42;;;2.30;99.90;;;;;;5103363;28;20516;-69
2023/01/23 07:20:46;;;;;;;28.00;18.33;;;2.30;99.90;;;;;;5101181;28;20035;-69
2023/01/23 07:23:12;;;;;;;32.33;18.05;;;2.30;99.90;;;;;;5092252;28;20074;-69
2023/01/23 07:25:38;;;;;;;31.55;18.92;;;2.30;99.90;;;;;;5099782;28;20488;-69
2023/01/23 07:28:04;;;;;;;30.92;18.50;;;2.30;99.90;;;;;;5088895;28;20054;-69
2023/01/23 07:30:30;;;;;;;32.47;19.35;;;2.30;99.90;;;;;;5094075;28;20052;-69
2023/01/23 07:32:57;;;;;;;29.35;18.25;;;2.30;99.90;;;;;;5088519;28;20108;-69
2023/01/23 07:35:23;;;;;;;25.65;18.70;;;2.30;99.90;;;;;;5104148;28;20048;-69
2023/01/23 07:37:49;;;;;;;28.52;17.92;;;2.30;99.90;;;;;;5091997;28;20446;-69
2023/01/23 07:40:15;;;;;;;22.52;15.55;;;2.30;99.90;;;;;;5077444;28;20126;-68
2023/01/23 07:42:40;;;;;;;29.98;19.02;;;2.30;99.90;;;;;;5105163;28;20043;-68
2023/01/23 07:45:08;;;;;;;27.05;18.58;;;2.30;99.90;;;;;;5103675;28;20042;-69
2023/01/23 07:47:34;;;;;;;27.25;18.35;;;2.30;99.90;;;;;;5107497;28;20086;-68
2023/01/23 07:50:00;;;;;;;34.50;19.27;;;2.30;99.90;;;;;;5093398;28;20047;-69
2023/01/23 07:52:26;;;;;;;28.52;19.40;;;2.30;99.90;;;;;;5103174;28;20043;-68
2023/01/23 07:54:52;;;;;;;29.50;19.52;;;2.30;99.90;;;;;;5090862;28;20040;-69
2023/01/23 07:57:17;;;;;;;27.00;17.25;;;2.30;99.90;;;;;;5099367;28;20075;-69
2023/01/23 07:59:43;;;;;;;26.67;18.00;;;2.30;99.90;;;;;;5103616;28;20040;-69
2023/01/23 08:02:09;;;;;;;30.13;18.77;;;2.30;99.90;;;;;;5105769;28;20043;-68
2023/01/23 08:04:35;;;;;;;34.88;19.27;;;2.30;99.90;;;;;;5093579;28;20040;-69
2023/01/23 08:07:01;;;;;;;26.33;17.52;;;2.30;99.90;;;;;;5097754;28;20074;-68
2023/01/23 08:09:28;;;;;;;27.70;17.65;;;2.30;99.90;;;;;;5102974;28;20055;-68
2023/01/23 08:11:54;;;;;;;29.88;17.00;;;2.30;99.90;;;;;;5101989;28;20051;-68
2023/01/23 08:14:19;;;;;;;35.75;19.15;;;2.30;99.90;;;;;;5099294;28;20040;-69
2023/01/23 08:16:49;;;;;;;29.70;18.00;;;2.30;99.90;;;;;;5095787;28;20753;-71
2023/01/23 08:19:15;;;;;;;25.92;16.67;;;2.30;99.90;;;;;;5101646;28;20044;-69
2023/01/23 08:21:41;;;;;;;25.70;17.77;;;2.40;99.90;;;;;;5101347;28;20405;-69
2023/01/23 08:24:07;;;;;;;31.83;17.30;;;2.40;99.90;;;;;;5101243;28;20039;-69
2023/01/23 08:26:33;;;;;;;30.20;17.95;;;2.30;99.90;;;;;;5098218;28;20035;-69
2023/01/23 08:28:59;;;;;;;21.85;15.98;;;2.40;99.90;;;;;;5102377;28;20408;-69
2023/01/23 08:31:25;;;;;;;30.08;15.75;;;2.40;99.90;;;;;;5097683;28;20042;-69
2023/01/23 08:33:50;;;;;;;28.52;17.20;;;2.40;99.90;;;;;;5101428;28;20127;-69
2023/01/23 08:36:16;;;;;;;26.92;18.50;;;2.40;99.90;;;;;;5102371;28;20058;-69
2023/01/23 08:38:42;;;;;;;25.13;17.95;;;2.40;99.90;;;;;;5097304;28;20044;-69
2023/01/23 08:41:10;;;;;;;30.23;17.10;;;2.40;99.90;;;;;;5102734;28;20058;-69
2023/01/23 08:43:37;;;;;;;27.95;17.85;;;2.50;99.90;;;;;;5088714;28;20102;-69
2023/01/23 08:46:03;;;;;;;22.00;15.38;;;2.50;99.90;;;;;;5088922;28;20042;-69
2023/01/23 08:48:28;;;;;;;23.58;16.70;;;2.50;99.90;;;;;;5101759;28;20126;-69
2023/01/23 08:51:00;;;;;;;23.20;15.80;;;2.50;99.90;;;;;;5095898;28;20047;-70
2023/01/23 08:53:26;;;;;;;23.70;15.52;;;2.50;99.90;;;;;;5098748;28;20039;-69
2023/01/23 08:55:52;;;;;;;25.80;15.15;;;2.60;99.90;;;;;;5101244;28;20971;-70
2023/01/23 08:58:19;;;;;;;24.08;15.10;;;2.60;99.90;;;;;;5112738;28;20043;-70
2023/01/23 09:00:46;;;;;;;21.27;14.68;;;2.60;99.90;;;;;;5092103;28;20089;-69
2023/01/23 09:03:11;;;;;;;18.33;13.30;;;2.60;99.90;;;;;;5091466;28;20119;-69
2023/01/23 09:05:37;;;;;;;18.20;14.52;;;2.60;99.90;;;;;;5102320;28;20123;-69
2023/01/23 09:08:03;;;;;;;24.25;14.90;;;2.60;99.90;;;;;;5098015;28;20051;-69
2023/01/23 09:10:29;;;;;;;20.38;14.73;;;2.70;99.90;;;;;;5101560;28;20054;-69
2023/01/23 09:12:56;;;;;;;17.23;13.60;;;2.70;99.90;;;;;;5110062;28;20043;-70
2023/01/23 09:15:21;;;;;;;20.02;14.02;;;2.70;99.90;;;;;;5092232;28;20051;-69
2023/01/23 09:17:48;;;;;;;21.15;14.27;;;2.70;99.90;;;;;;5090849;28;20036;-69
2023/01/23 09:20:14;;;;;;;27.02;13.10;;;2.80;99.90;;;;;;5096065;28;20180;-69
2023/01/23 09:22:40;;;;;;;18.30;13.90;;;2.80;99.90;;;;;;5099436;28;20072;-69
2023/01/23 09:25:06;;;;;;;17.27;13.55;;;2.80;99.90;;;;;;5107091;28;20116;-69
2023/01/23 09:27:32;;;;;;;17.80;13.15;;;2.80;99.90;;;;;;5090186;28;20036;-69
2023/01/23 09:29:57;;;;;;;19.92;14.30;;;2.80;99.90;;;;;;5097699;28;20385;-69
2023/01/23 09:32:25;;;;;;;21.63;14.77;;;2.90;99.90;;;;;;5097154;28;20713;-69
2023/01/23 09:34:51;;;;;;;17.97;12.27;;;2.90;99.90;;;;;;5103916;28;20128;-69
2023/01/23 09:37:17;;;;;;;20.25;13.88;;;2.90;99.90;;;;;;5101654;28;20795;-69
2023/01/23 09:39:43;;;;;;;18.60;13.98;;;2.90;99.90;;;;;;5104881;28;20396;-69
2023/01/23 09:42:20;;;;;;;25.70;14.90;;;2.90;99.90;;;;;;5099807;28;20127;-69
2023/01/23 09:44:59;;;;;;;24.15;14.40;;;3.00;99.90;;;;;;5093380;28;21071;-70
2023/01/23 09:47:47;;;;;;;20.50;14.70;;;2.90;99.90;;;;;;5103934;28;20040;-69
2023/01/23 09:50:25;;;;;;;21.15;13.20;;;3.00;99.90;;;;;;5103310;28;20123;-69
2023/01/23 09:52:58;;;;;;;16.88;13.50;;;3.00;99.90;;;;;;5096211;28;20054;-69
2023/01/23 09:55:44;;;;;;;20.10;14.48;;;3.00;99.90;;;;;;5102419;27;20430;-70
2023/01/23 09:58:39;;;;;;;17.90;13.70;;;3.00;99.90;;;;;;5098358;28;20043;-70
2023/01/23 10:01:10;;;;;;;28.30;14.00;;;3.10;99.90;;;;;;5098189;28;20056;-69
2023/01/23 10:03:36;;;;;;;19.48;13.63;;;3.10;99.90;;;;;;5090036;28;20405;-70
2023/01/23 10:06:19;;;;;;;21.20;13.75;;;3.10;99.90;;;;;;5091971;28;20048;-70
2023/01/23 10:08:54;;;;;;;23.38;13.32;;;3.10;99.90;;;;;;5100061;28;20040;-70
2023/01/23 10:11:30;;;;;;;27.60;15.45;;;3.10;99.90;;;;;;5099763;28;20047;-70
2023/01/23 10:14:01;;;;;;;22.92;14.40;;;3.10;99.90;;;;;;5098595;28;20104;-69
2023/01/23 10:16:33;;;;;;;23.73;14.82;;;3.10;99.90;;;;;;5104818;28;20157;-70
2023/01/23 10:19:36;;;;;;;21.50;14.63;;;3.10;99.90;;;;;;5110179;28;20101;-69
2023/01/23 10:22:22;;;;;;;19.25;14.23;;;3.20;99.90;;;;;;5098287;28;20501;-69
2023/01/23 10:24:54;;;;;;;22.45;13.70;;;3.10;99.90;;;;;;5099804;28;20039;-70
2023/01/23 10:27:25;;;;;;;21.02;14.02;;;3.10;99.90;;;;;;5102045;28;20627;-69
2023/01/23 10:29:50;;;;;;;23.15;14.20;;;3.10;99.90;;;;;;5100230;28;20124;-70
2023/01/23 10:32:55;;;;;;;23.23;14.32;;;3.10;99.90;;;;;;5105426;28;20088;-70
2023/01/23 10:35:39;;;;;;;19.75;14.98;;;3.20;99.90;;;;;;5104748;27;20135;-69
2023/01/23 10:38:29;;;;;;;19.90;13.93;;;3.10;99.90;;;;;;5102078;28;20067;-70
2023/01/23 10:41:13;;;;;;;23.23;13.98;;;3.10;99.90;;;;;;5102189;28;20043;-69
2023/01/23 10:43:47;;;;;;;22.40;15.02;;;3.10;99.90;;;;;;5092318;28;20051;-70
2023/01/23 10:46:16;;;;;;;23.42;16.25;;;3.10;99.90;;;;;;5097042;28;20048;-70
2023/01/23 10:48:46;;;;;;;;;;;3.20;99.90;;;;;;5107945;28;20043;-70
2023/01/23 10:51:37;;;;;;;21.77;15.85;;;3.20;99.90;;;;;;5091530;28;20399;-70
2023/01/23 10:54:10;;;;;;;21.92;16.70;;;3.20;99.90;;;;;;5097169;28;20091;-70
2023/01/23 10:56:58;;;;;;;25.55;15.82;;;3.10;99.90;;;;;;5095950;28;20031;-70
2023/01/23 10:59:39;;;;;;;19.65;14.88;;;3.20;99.90;;;;;;5105533;28;20047;-70
2023/01/23 11:02:14;;;;;;;21.88;15.52;;;3.20;99.90;;;;;;5097083;28;20489;-70
2023/01/23 11:04:42;;;;;;;17.80;8.50;;;3.20;99.90;;;;;;5103501;28;20047;-70
2023/01/23 11:07:18;;;;;;;20.02;14.50;;;3.20;99.90;;;;;;5105843;28;20050;-70
2023/01/23 11:09:47;;;;;;;26.42;15.32;;;3.20;99.90;;;;;;5103355;28;20119;-70
2023/01/23 11:12:33;;;;;;;23.40;15.63;;;3.20;99.90;;;;;;5107261;28;20062;-70
2023/01/23 11:15:26;;;;;;;24.08;15.18;;;3.30;99.90;;;;;;5103497;28;20059;-70
2023/01/23 11:17:54;;;;;;;24.52;15.15;;;3.30;99.90;;;;;;5101962;28;20150;-70
2023/01/23 11:20:27;;;;;;;22.05;14.27;;;3.30;99.90;;;;;;5100399;28;20523;-69
2023/01/23 11:23:12;;;;;;;21.85;15.77;;;3.30;99.90;;;;;;5101066;28;20047;-69
2023/01/23 11:25:48;;;;;;;21.02;15.32;;;3.30;99.90;;;;;;5103731;28;20036;-70
2023/01/23 11:28:26;;;;;;;23.90;17.00;;;3.30;99.90;;;;;;5101721;28;20044;-70
2023/01/23 11:30:56;;;;;;;28.38;16.38;;;3.30;99.90;;;;;;5103679;28;20039;-70
2023/01/23 11:33:25;;;;;;;22.50;15.07;;;3.30;99.90;;;;;;5089816;28;20071;-70
2023/01/23 11:35:59;;;;;;;;;;;3.30;99.90;;;;;;5105310;28;20032;-71
2023/01/23 11:38:29;;;;;;;23.67;16.58;;;3.30;99.90;;;;;;5102736;28;20376;-70
2023/01/23 11:40:55;;;;;;;21.20;14.90;;;3.30;99.90;;;;;;5105015;28;20044;-70
2023/01/23 11:43:21;;;;;;;23.38;16.88;;;3.30;99.90;;;;;;5099334;28;20519;-70
2023/01/23 11:46:08;;;;;;;33.22;16.85;;;3.30;99.90;;;;;;5100246;28;20044;-70
2023/01/23 11:48:33;;;;;;;25.23;15.95;;;3.30;99.90;;;;;;5088234;28;20047;-70
2023/01/23 11:51:11;;;;;;;26.65;16.45;;;3.30;99.90;;;;;;5090751;28;20048;-70
2023/01/23 11:53:56;;;;;;;22.50;15.80;;;3.30;99.90;;;;;;5088126;28;20092;-70
2023/01/23 11:56:42;;;;;;;25.60;16.58;;;3.40;99.90;;;;;;5108919;28;20086;-70
2023/01/23 11:59:19;;;;;;;21.83;16.08;;;3.30;99.90;;;;;;5100585;28;20047;-70
2023/01/23 12:01:53;;;;;;;20.85;16.25;;;3.40;99.90;;;;;;5101993;28;20052;-70
2023/01/23 12:04:33;;;;;;;25.73;16.15;;;3.40;99.90;;;;;;5108155;28;20789;-70
2023/01/23 12:07:25;;;;;;;25.45;17.50;;;3.40;99.90;;;;;;5096736;28;20130;-70
2023/01/23 12:10:19;;;;;;;13.43;5.95;;;3.40;99.90;;;;;;5099348;28;20055;-70
2023/01/23 12:13:09;;;;;;;22.60;17.15;;;3.30;99.90;;;;;;5093341;28;20040;-70
2023/01/23 12:15:53;;;;;;;24.83;17.92;;;3.30;99.90;;;;;;5097955;28;20051;-70
2023/01/23 12:18:44;;;;;;;24.40;18.30;;;3.40;99.90;;;;;;5107415;28;20055;-70
2023/01/23 12:21:18;;;;;;;26.95;18.73;;;3.40;99.90;;;;;;5087819;28;20160;-70
2023/01/23 12:24:08;;;;;;;26.60;18.67;;;3.40;99.90;;;;;;5092250;28;20043;-70
2023/01/23 12:26:39;;;;;;;27.90;18.70;;;3.40;99.90;;;;;;5099795;28;20131;-70
2023/01/23 12:29:14;;;;;;;25.13;18.55;;;3.40;99.90;;;;;;5101368;28;20140;-70
2023/01/23 12:32:03;;;;;;;29.13;18.92;;;3.40;99.90;;;;;;5104601;28;20513;-70
2023/01/23 12:34:43;;;;;;;29.40;18.05;;;3.50;99.90;;;;;;5086412;28;20146;-69
2023/01/23 12:37:18;;;;;;;28.40;20.23;;;3.50;99.90;;;;;;5099172;28;20082;-72
2023/01/23 12:40:03;;;;;;;27.52;19.15;;;3.50;99.90;;;;;;5089465;28;20089;-70
2023/01/23 12:42:47;;;;;;;25.25;19.95;;;3.50;99.90;;;;;;5098125;28;20059;-70
2023/01/23 12:45:21;;;;;;;47.13;21.58;;;3.50;99.90;;;;;;5094225;28;20075;-70
2023/01/23 12:48:03;;;;;;;28.58;20.25;;;3.50;99.90;;;;;;5101950;27;20119;-69
2023/01/23 12:50:41;;;;;;;29.27;20.02;;;3.50;99.90;;;;;;5091822;28;20177;-70
2023/01/23 12:53:19;;;;;;;26.27;19.17;;;3.50;99.90;;;;;;5100709;28;20166;-69
2023/01/23 12:56:04;;;;;;;33.55;20.73;;;3.50;99.90;;;;;;5104674;28;20305;-70